Time;durP1;ratioP1;P1;durP2;ratioP2;P2;SDS_P1;SDS_P2;PMS_P1;PMS_P2;Temp;Humidity;BMP_temperature;BMP_pressure;BME280_temperature;BME280_humidity;BME280_pressure;Samples;Min_cycle;Max_cycle;Signal;HPM_P1;HPM_P2
2021/04/12 00:01:19;;;;;;;9.95;3.83;;;12.30;92.40;;;;;;5073942;28;20027;-72
2021/04/12 00:03:59;;;;;;;4.88;3.13;;;12.20;93.00;;;;;;5073835;28;20029;-73
2021/04/12 00:06:41;;;;;;;4.80;3.65;;;12.00;92.40;;;;;;5073891;28;20032;-73
2021/04/12 00:09:39;;;;;;;8.98;4.30;;;11.90;94.40;;;;;;5073657;28;20024;-73
2021/04/12 00:12:20;;;;;;;4.93;3.75;;;11.90;95.30;;;;;;5041934;28;20037;-73
2021/04/12 00:15:29;;;;;;;4.15;3.75;;;11.70;95.30;;;;;;5073619;28;20078;-72
2021/04/12 00:18:00;;;;;;;4.40;3.45;;;11.80;97.10;;;;;;5041751;28;20525;-73
2021/04/12 00:20:35;;;;;;;6.60;3.50;;;11.80;97.40;;;;;;5073462;28;20039;-73
2021/04/12 00:23:09;;;;;;;5.47;3.95;;;11.90;97.10;;;;;;5073333;28;20029;-73
2021/04/12 00:26:02;;;;;;;6.15;4.32;;;11.90;96.10;;;;;;5073706;28;20060;-73
2021/04/12 00:28:33;;;;;;;;;;;11.90;96.00;;;;;;5073840;28;20017;-73
2021/04/12 00:31:04;;;;;;;5.30;3.67;;;12.30;95.80;;;;;;5073047;28;19904;-74
2021/04/12 00:33:55;;;;;;;4.30;3.30;;;12.20;95.10;;;;;;5073257;28;20086;-72
2021/04/12 00:36:28;;;;;;;6.57;3.58;;;12.40;93.90;;;;;;5071940;28;20376;-72
2021/04/12 00:39:02;;;;;;;4.10;3.42;;;12.30;93.40;;;;;;5073088;28;20029;-72
2021/04/12 00:41:37;;;;;;;5.75;3.42;;;12.40;93.50;;;;;;5071592;28;20020;-73
2021/04/12 00:44:46;;;;;;;9.07;3.75;;;12.50;92.90;;;;;;5073031;28;20031;-72
2021/04/12 00:48:03;;;;;;;4.80;3.40;;;12.30;92.00;;;;;;5072985;28;20021;-73
2021/04/12 00:50:31;;;;;;;4.32;3.70;;;11.90;94.70;;;;;;5046686;28;20044;-73
2021/04/12 00:53:12;;;;;;;5.32;4.47;;;11.80;95.50;;;;;;5072664;28;20487;-74
2021/04/12 00:55:49;;;;;;;7.43;4.22;;;11.80;95.40;;;;;;5072877;28;20116;-73
2021/04/12 00:58:26;;;;;;;4.43;3.40;;;11.50;97.40;;;;;;5072660;28;20024;-73
2021/04/12 01:01:00;;;;;;;8.10;4.20;;;11.40;99.00;;;;;;5072997;28;20056;-73
2021/04/12 01:03:36;;;;;;;6.25;4.40;;;11.60;99.90;;;;;;5072617;28;20020;-73
2021/04/12 01:06:30;;;;;;;8.18;3.67;;;11.70;98.60;;;;;;5072543;28;20025;-73
2021/04/12 01:09:32;;;;;;;6.22;4.03;;;11.90;98.30;;;;;;5072375;28;20024;-72
2021/04/12 01:12:35;;;;;;;6.57;3.65;;;12.10;96.50;;;;;;5072511;28;20021;-73
2021/04/12 01:15:38;;;;;;;6.72;4.43;;;12.10;95.80;;;;;;5072485;28;20056;-72
2021/04/12 01:18:31;;;;;;;4.25;3.55;;;12.10;96.00;;;;;;5088011;28;20032;-73
2021/04/12 01:21:24;;;;;;;30.17;5.53;;;12.10;96.80;;;;;;5072331;28;20031;-73
2021/04/12 01:24:01;;;;;;;11.70;4.97;;;12.20;96.50;;;;;;5072320;28;20033;-73
2021/04/12 01:27:04;;;;;;;10.60;3.78;;;12.30;95.10;;;;;;5072361;28;20383;-73
2021/04/12 01:29:30;;;;;;;9.88;3.85;;;12.10;95.10;;;;;;5072049;28;20052;-72
2021/04/12 01:32:14;;;;;;;9.13;4.15;;;12.00;96.40;;;;;;5072492;28;20411;-73
2021/04/12 01:35:05;;;;;;;7.97;3.78;;;12.10;96.30;;;;;;5071111;28;20028;-73
2021/04/12 01:38:06;;;;;;;8.07;3.72;;;12.10;96.30;;;;;;5072136;28;20149;-72
2021/04/12 01:40:46;;;;;;;5.65;3.63;;;12.20;96.70;;;;;;5071733;28;20109;-73
2021/04/12 01:43:27;;;;;;;6.30;3.50;;;12.40;95.40;;;;;;5072061;28;20032;-72
2021/04/12 01:46:26;;;;;;;3.75;3.03;;;12.50;94.70;;;;;;5072157;28;20132;-73
2021/04/12 01:48:55;;;;;;;5.80;3.13;;;12.40;93.40;;;;;;5071958;28;20056;-73
2021/04/12 01:51:43;;;;;;;4.25;3.13;;;12.30;95.70;;;;;;5071968;28;20039;-73
2021/04/12 01:54:41;;;;;;;8.30;3.78;;;12.20;95.40;;;;;;5071773;28;20075;-74
2021/04/12 01:57:34;;;;;;;11.68;3.63;;;12.20;96.30;;;;;;5071982;28;20063;-73
2021/04/12 02:00:23;;;;;;;7.97;3.45;;;12.10;96.10;;;;;;5071774;28;20016;-73
2021/04/12 02:03:18;;;;;;;4.38;3.53;;;12.10;97.70;;;;;;5087435;28;20024;-73
2021/04/12 02:05:44;;;;;;;5.93;3.38;;;12.00;96.80;;;;;;5071804;28;20029;-73
2021/04/12 02:08:25;;;;;;;8.13;2.95;;;11.80;97.90;;;;;;5071842;28;20553;-73
2021/04/12 02:11:20;;;;;;;3.47;2.75;;;11.70;99.00;;;;;;5071819;28;20025;-73
2021/04/12 02:14:09;;;;;;;3.97;2.90;;;11.60;99.00;;;;;;5071706;28;20040;-73
2021/04/12 02:16:58;;;;;;;3.53;3.17;;;11.50;99.90;;;;;;5071835;28;20021;-72
2021/04/12 02:19:47;;;;;;;5.88;3.00;;;11.50;99.90;;;;;;5073117;28;20150;-73
2021/04/12 02:22:34;;;;;;;4.38;3.97;;;11.40;99.90;;;;;;5075843;28;20376;-72
2021/04/12 02:25:09;;;;;;;4.50;3.65;;;11.30;99.90;;;;;;5091308;28;20507;-73
2021/04/12 02:27:52;;;;;;;4.13;3.65;;;11.20;99.90;;;;;;5075659;28;20013;-73
2021/04/12 02:30:30;;;;;;;3.38;2.83;;;11.40;99.90;;;;;;5075377;28;20032;-73
2021/04/12 02:33:14;;;;;;;3.63;3.33;;;11.20;99.90;;;;;;5075577;28;20028;-73
2021/04/12 02:35:51;;;;;;;3.90;3.50;;;11.10;99.90;;;;;;5075516;28;20044;-73
2021/04/12 02:38:25;;;;;;;3.75;3.15;;;11.00;99.90;;;;;;5075502;28;20063;-73
2021/04/12 02:41:08;;;;;;;6.68;3.08;;;11.00;99.90;;;;;;5075473;28;20025;-73
2021/04/12 02:43:57;;;;;;;10.25;3.95;;;10.80;99.90;;;;;;5075288;28;20101;-73
2021/04/12 02:46:49;;;;;;;5.43;3.17;;;10.90;99.90;;;;;;5075449;28;20085;-73
2021/04/12 02:49:34;;;;;;;;;;;11.20;99.90;;;;;;5075574;28;20051;-72
2021/04/12 02:52:05;;;;;;;3.72;3.00;;;11.40;99.90;;;;;;5075221;28;19908;-72
2021/04/12 02:55:08;;;;;;;7.63;3.08;;;11.20;99.90;;;;;;5075362;28;20550;-73
2021/04/12 02:57:54;;;;;;;9.43;3.50;;;11.20;99.90;;;;;;5075110;28;20553;-72
2021/04/12 03:00:44;;;;;;;2.72;2.42;;;11.20;99.90;;;;;;5074894;28;20767;-73
2021/04/12 03:03:48;;;;;;;4.03;3.40;;;11.20;99.90;;;;;;5073693;28;20024;-72
2021/04/12 03:06:38;;;;;;;7.85;3.40;;;11.20;99.90;;;;;;5090669;28;20107;-72
2021/04/12 03:09:29;;;;;;;27.48;3.63;;;11.30;99.90;;;;;;5074813;28;20029;-73
2021/04/12 03:12:31;;;;;;;3.20;2.90;;;11.30;99.90;;;;;;5074860;28;20052;-73
2021/04/12 03:15:51;;;;;;;3.25;2.83;;;11.50;99.90;;;;;;5074702;28;20024;-72
2021/04/12 03:18:38;;;;;;;6.55;2.83;;;11.60;98.50;;;;;;5012352;28;20390;-73
2021/04/12 03:21:32;;;;;;;11.98;3.33;;;11.50;98.30;;;;;;5074575;28;20025;-72
2021/04/12 03:24:16;;;;;;;19.70;4.32;;;11.50;98.30;;;;;;5074504;28;20025;-72
2021/04/12 03:27:43;;;;;;;5.53;3.13;;;11.60;97.90;;;;;;5074673;28;20033;-72
2021/04/12 03:30:24;;;;;;;6.32;3.05;;;11.50;97.70;;;;;;5000883;28;20059;-73
2021/04/12 03:32:56;;;;;;;7.55;3.47;;;11.60;96.80;;;;;;5074449;28;20025;-73
2021/04/12 03:35:37;;;;;;;3.78;3.13;;;11.40;97.20;;;;;;5072998;28;20028;-73
2021/04/12 03:38:20;;;;;;;3.28;2.85;;;11.20;98.10;;;;;;5073071;28;20027;-73
2021/04/12 03:40:58;;;;;;;7.05;2.70;;;11.10;99.80;;;;;;5074348;28;20048;-73
2021/04/12 03:43:50;;;;;;;4.25;3.00;;;11.00;99.90;;;;;;5074188;28;20033;-73
2021/04/12 03:46:25;;;;;;;8.88;3.38;;;11.10;99.90;;;;;;5063295;28;20400;-73
2021/04/12 03:49:42;;;;;;;4.22;2.50;;;11.30;99.90;;;;;;5074047;28;20085;-73
2021/04/12 03:52:29;;;;;;;4.65;2.30;;;11.40;99.00;;;;;;5040153;28;20111;-72
2021/04/12 03:55:10;;;;;;;16.98;3.38;;;11.40;97.50;;;;;;5074009;28;20032;-73
2021/04/12 03:58:04;;;;;;;11.00;3.20;;;11.40;97.80;;;;;;5074095;28;20074;-73
2021/04/12 04:01:12;;;;;;;37.42;5.38;;;11.30;97.50;;;;;;5073766;28;20051;-72
2021/04/12 04:04:08;;;;;;;5.13;3.20;;;10.90;99.90;;;;;;5073862;28;20025;-73
2021/04/12 04:07:04;;;;;;;6.47;2.92;;;10.80;99.90;;;;;;5073710;28;20036;-73
2021/04/12 04:09:46;;;;;;;8.43;3.80;;;11.00;99.90;;;;;;5073581;28;20025;-73
2021/04/12 04:12:27;;;;;;;11.52;3.90;;;11.00;99.90;;;;;;5072498;28;20514;-73
2021/04/12 04:15:09;;;;;;;7.85;2.80;;;11.10;99.90;;;;;;5073643;28;20495;-73
2021/04/12 04:18:16;;;;;;;7.85;3.30;;;11.10;99.60;;;;;;5073605;28;20024;-73
2021/04/12 04:21:03;;;;;;;18.58;3.65;;;11.20;99.80;;;;;;5073526;28;20024;-73
2021/04/12 04:23:58;;;;;;;23.33;4.25;;;11.00;99.90;;;;;;5072176;28;20036;-72
2021/04/12 04:26:58;;;;;;;6.68;2.90;;;11.00;99.90;;;;;;5072102;28;20435;-73
2021/04/12 04:29:39;;;;;;;22.95;3.65;;;10.90;99.90;;;;;;5072899;28;20028;-73
2021/04/12 04:32:15;;;;;;;12.82;3.88;;;11.00;99.90;;;;;;5073247;28;20056;-72
2021/04/12 04:35:02;;;;;;;12.82;3.25;;;11.20;99.90;;;;;;5073177;28;20032;-73
2021/04/12 04:38:06;;;;;;;10.20;3.63;;;11.10;99.90;;;;;;5073095;28;20020;-73
2021/04/12 04:40:44;;;;;;;8.68;3.00;;;11.00;99.60;;;;;;5073019;28;20107;-73
2021/04/12 04:43:32;;;;;;;12.02;3.63;;;10.90;99.90;;;;;;5072451;28;20112;-72
2021/04/12 04:46:19;;;;;;;6.30;3.92;;;11.00;99.90;;;;;;5072872;28;20048;-72
2021/04/12 04:49:11;;;;;;;4.40;4.00;;;11.00;99.90;;;;;;5072888;28;20040;-74
2021/04/12 04:51:55;;;;;;;;;;;10.90;99.90;;;;;;5073198;28;20032;-73
2021/04/12 04:54:26;;;;;;;14.88;7.18;;;10.80;99.90;;;;;;5072670;28;20006;-73
2021/04/12 04:57:24;;;;;;;11.48;6.78;;;10.80;99.90;;;;;;5071551;28;20396;-73
2021/04/12 05:00:25;;;;;;;30.08;7.45;;;10.50;99.90;;;;;;5072626;28;20024;-75
2021/04/12 05:03:16;;;;;;;27.77;9.15;;;10.40;99.90;;;;;;5044185;28;20487;-76
2021/04/12 05:06:03;;;;;;;17.80;10.48;;;10.10;99.90;;;;;;5071481;28;20492;-76
2021/04/12 05:08:41;;;;;;;21.38;11.38;;;10.00;99.90;;;;;;5072365;28;20028;-76
2021/04/12 05:11:36;;;;;;;20.10;10.80;;;9.80;99.90;;;;;;5071376;28;20070;-75
2021/04/12 05:14:43;;;;;;;19.25;9.00;;;9.70;99.90;;;;;;5072410;28;20115;-76
2021/04/12 05:17:33;;;;;;;9.10;6.57;;;9.40;99.90;;;;;;5072354;28;20020;-75
2021/04/12 05:20:14;;;;;;;13.02;6.05;;;9.30;99.90;;;;;;5072131;28;20059;-76
2021/04/12 05:22:46;;;;;;;13.88;5.38;;;9.20;99.90;;;;;;5072333;28;20439;-73
2021/04/12 05:25:26;;;;;;;10.20;5.43;;;9.30;99.90;;;;;;5072196;28;20025;-75
2021/04/12 05:28:22;;;;;;;19.33;5.90;;;9.40;99.90;;;;;;5072160;28;20037;-75
2021/04/12 05:30:48;;;;;;;10.13;6.38;;;9.50;99.90;;;;;;5071955;28;20031;-75
2021/04/12 05:33:25;;;;;;;10.05;6.95;;;9.30;99.90;;;;;;5072005;28;20029;-75
2021/04/12 05:36:19;;;;;;;14.30;5.90;;;9.00;99.90;;;;;;5072139;28;20496;-75
2021/04/12 05:39:09;;;;;;;8.07;4.35;;;8.90;99.90;;;;;;5071965;28;20030;-75
2021/04/12 05:41:44;;;;;;;11.35;3.45;;;8.70;99.90;;;;;;5071848;28;20384;-75
2021/04/12 05:44:49;;;;;;;8.48;3.90;;;8.40;99.90;;;;;;5072179;28;20384;-75
2021/04/12 05:47:22;;;;;;;3.30;2.53;;;8.40;99.90;;;;;;5038447;28;20087;-75
2021/04/12 05:50:04;;;;;;;11.20;3.42;;;8.10;99.90;;;;;;5075717;28;20052;-75
2021/04/12 05:52:49;;;;;;;6.95;4.93;;;8.00;99.90;;;;;;5070574;28;20349;-75
2021/04/12 05:55:17;;;;;;;3.35;2.60;;;7.50;99.90;;;;;;5075059;28;20388;-75
2021/04/12 05:57:55;;;;;;;3.17;2.60;;;7.40;99.90;;;;;;5071374;28;20047;-75
2021/04/12 06:00:42;;;;;;;7.28;2.42;;;7.50;99.90;;;;;;5073448;28;20484;-75
2021/04/12 06:03:08;;;;;;;4.80;2.88;;;7.70;99.90;;;;;;5090305;28;20123;-75
2021/04/12 06:05:49;;;;;;;4.72;2.65;;;7.80;99.90;;;;;;5088512;28;20161;-75
2021/04/12 06:08:36;;;;;;;3.77;2.10;;;7.60;99.90;;;;;;5082923;28;20040;-75
2021/04/12 06:11:23;;;;;;;7.32;2.67;;;7.40;99.90;;;;;;5089471;28;20028;-75
2021/04/12 06:14:19;;;;;;;3.63;2.47;;;7.30;99.90;;;;;;5076001;28;20032;-75
2021/04/12 06:17:11;;;;;;;2.75;2.47;;;7.10;99.90;;;;;;5069786;28;20027;-75
2021/04/12 06:20:06;;;;;;;5.30;2.88;;;7.00;99.90;;;;;;5073564;28;20020;-75
2021/04/12 06:22:49;;;;;;;4.22;2.85;;;7.00;99.90;;;;;;5068599;28;20370;-75
2021/04/12 06:25:23;;;;;;;4.13;2.70;;;7.10;99.90;;;;;;5076067;28;20464;-76
2021/04/12 06:27:58;;;;;;;6.18;2.80;;;6.90;99.90;;;;;;5074553;28;20032;-76
2021/04/12 06:30:46;;;;;;;2.60;2.35;;;7.00;99.90;;;;;;5077534;28;20026;-75
2021/04/12 06:33:35;;;;;;;1.70;1.60;;;6.90;99.90;;;;;;5087204;28;20032;-76
2021/04/12 06:36:16;;;;;;;4.20;1.70;;;6.80;99.90;;;;;;5068642;28;20219;-74
2021/04/12 06:38:54;;;;;;;2.20;2.00;;;6.60;99.90;;;;;;5077548;28;20016;-75
2021/04/12 06:42:11;;;;;;;2.88;1.92;;;6.20;99.90;;;;;;5090488;28;20024;-75
2021/04/12 06:44:44;;;;;;;3.78;1.60;;;6.00;99.90;;;;;;5010115;28;20196;-76
2021/04/12 06:47:35;;;;;;;2.30;1.25;;;5.60;99.90;;;;;;5068730;28;20029;-75
2021/04/12 06:50:06;;;;;;;1.30;1.20;;;5.40;99.90;;;;;;5086342;28;20228;-75
2021/04/12 06:52:52;;;;;;;2.67;1.73;;;5.20;99.90;;;;;;5080612;28;20022;-74
2021/04/12 06:55:19;;;;;;;1.50;1.40;;;5.10;99.90;;;;;;5069553;28;20082;-75
2021/04/12 06:58:03;;;;;;;4.20;1.40;;;5.20;99.90;;;;;;5075300;28;20020;-75
2021/04/12 07:00:56;;;;;;;3.03;1.85;;;5.20;99.90;;;;;;5080550;28;20492;-74
2021/04/12 07:03:34;;;;;;;3.05;1.58;;;5.10;99.90;;;;;;5074514;28;20017;-74
2021/04/12 07:06:31;;;;;;;4.47;2.08;;;5.00;99.90;;;;;;5073003;28;20025;-75
2021/04/12 07:09:48;;;;;;;4.03;1.25;;;4.80;99.90;;;;;;5071386;28;20119;-74
2021/04/12 07:12:22;;;;;;;1.70;1.60;;;4.70;99.90;;;;;;5048620;28;20044;-74
2021/04/12 07:15:23;;;;;;;2.20;1.60;;;4.70;99.90;;;;;;5069480;28;20056;-74
2021/04/12 07:17:49;;;;;;;1.52;1.42;;;4.90;99.90;;;;;;5027623;28;20497;-73
2021/04/12 07:20:51;;;;;;;1.77;1.67;;;4.90;99.90;;;;;;5065884;28;20067;-73
2021/04/12 07:23:58;;;;;;;2.65;1.42;;;4.50;99.90;;;;;;5071612;28;20035;-73
2021/04/12 07:27:01;;;;;;;2.65;1.58;;;4.40;99.90;;;;;;5074799;28;20161;-74
2021/04/12 07:29:46;;;;;;;2.67;1.83;;;4.60;99.90;;;;;;5088338;28;20027;-74
2021/04/12 07:32:41;;;;;;;1.33;1.23;;;4.40;99.90;;;;;;5086287;28;20035;-75
2021/04/12 07:35:14;;;;;;;2.63;1.25;;;4.60;99.90;;;;;;5086562;28;20047;-74
2021/04/12 07:38:17;;;;;;;2.22;1.88;;;4.50;99.90;;;;;;5082598;28;20599;-74
2021/04/12 07:41:20;;;;;;;1.27;1.10;;;4.60;99.90;;;;;;5074934;28;20111;-74
2021/04/12 07:44:23;;;;;;;3.97;2.75;;;4.50;99.90;;;;;;5081302;28;20474;-74
2021/04/12 07:47:11;;;;;;;0.90;0.90;;;4.60;99.90;;;;;;5082408;28;20108;-76
2021/04/12 07:49:49;;;;;;;2.20;1.67;;;4.60;99.90;;;;;;5081697;28;20123;-75
2021/04/12 07:52:38;;;;;;;2.88;1.98;;;4.60;99.90;;;;;;5080557;28;20504;-74
2021/04/12 07:55:43;;;;;;;4.70;1.98;;;4.70;99.90;;;;;;5083201;28;20396;-74
2021/04/12 07:58:23;;;;;;;5.82;2.28;;;4.50;99.90;;;;;;5067392;28;20477;-74
2021/04/12 08:01:14;;;;;;;2.80;1.35;;;4.30;99.90;;;;;;5078142;28;20119;-74
2021/04/12 08:04:08;;;;;;;2.08;1.50;;;4.40;99.90;;;;;;5087175;28;20032;-73
2021/04/12 08:07:07;;;;;;;2.20;1.80;;;4.30;99.90;;;;;;5072310;28;20507;-73
2021/04/12 08:10:11;;;;;;;2.35;1.80;;;4.30;99.90;;;;;;5091073;28;20527;-74
2021/04/12 08:13:04;;;;;;;1.85;1.35;;;4.50;99.90;;;;;;5087188;28;20024;-74
2021/04/12 08:15:42;;;;;;;1.20;1.10;;;4.60;99.90;;;;;;5080819;28;20494;-74
2021/04/12 08:18:11;;;;;;;1.48;1.20;;;4.40;99.90;;;;;;5071011;28;20387;-73
2021/04/12 08:21:12;;;;;;;2.88;2.20;;;4.60;99.90;;;;;;5075638;28;20390;-75
2021/04/12 08:23:57;;;;;;;1.10;1.10;;;4.60;99.90;;;;;;5101592;28;20028;-74
2021/04/12 08:26:44;;;;;;;3.67;1.63;;;4.60;99.90;;;;;;5084303;28;20089;-73
2021/04/12 08:29:30;;;;;;;1.48;1.38;;;4.70;99.90;;;;;;5086800;28;20035;-73
2021/04/12 08:32:14;;;;;;;1.40;1.30;;;4.70;99.90;;;;;;5077668;28;20417;-74
2021/04/12 08:35:10;;;;;;;4.88;1.13;;;4.70;99.90;;;;;;5084775;28;20024;-74
2021/04/12 08:38:14;;;;;;;0.90;0.90;;;4.70;99.90;;;;;;5080885;28;20031;-73
2021/04/12 08:40:45;;;;;;;6.40;4.88;;;4.50;99.90;;;;;;5072071;28;20047;-74
2021/04/12 08:43:42;;;;;;;1.40;1.20;;;4.30;99.90;;;;;;5072156;28;20032;-74
2021/04/12 08:46:45;;;;;;;1.20;1.10;;;4.20;99.90;;;;;;5078758;28;20036;-74
2021/04/12 08:49:28;;;;;;;1.85;1.42;;;3.60;99.90;;;;;;5085083;28;20476;-74
2021/04/12 08:52:28;;;;;;;2.03;1.50;;;3.60;99.90;;;;;;5050482;28;20025;-74
2021/04/12 08:55:20;;;;;;;7.18;2.20;;;3.90;99.90;;;;;;5076717;28;20036;-75
2021/04/12 08:58:13;;;;;;;2.90;1.30;;;4.30;99.90;;;;;;5069321;28;20530;-73
2021/04/12 09:01:10;;;;;;;2.78;1.73;;;4.20;99.90;;;;;;5077579;28;20096;-74
2021/04/12 09:03:54;;;;;;;2.47;1.50;;;4.20;99.90;;;;;;5075108;28;20438;-73
2021/04/12 09:07:02;;;;;;;7.35;1.30;;;4.10;99.90;;;;;;5081310;28;20028;-75
2021/04/12 09:10:03;;;;;;;1.75;1.63;;;4.10;99.90;;;;;;5084400;28;20054;-74
2021/04/12 09:12:57;;;;;;;2.80;2.22;;;4.10;99.90;;;;;;5073865;28;20503;-73
2021/04/12 09:15:35;;;;;;;2.78;2.42;;;4.10;99.90;;;;;;5070731;28;20033;-74
2021/04/12 09:18:19;;;;;;;3.88;2.75;;;4.10;99.90;;;;;;5075322;28;20052;-73
2021/04/12 09:21:26;;;;;;;7.32;3.60;;;4.10;99.90;;;;;;5075015;28;20379;-73
2021/04/12 09:24:18;;;;;;;15.13;4.97;;;4.30;99.90;;;;;;5069099;28;20033;-74
2021/04/12 09:27:21;;;;;;;13.13;4.82;;;4.60;99.90;;;;;;5069648;28;20012;-74
2021/04/12 09:29:52;;;;;;;9.43;3.15;;;4.60;99.90;;;;;;5072849;28;20025;-74
2021/04/12 09:32:55;;;;;;;11.07;4.18;;;4.60;99.90;;;;;;5087662;28;20032;-74
2021/04/12 09:35:36;;;;;;;6.55;3.97;;;4.60;99.90;;;;;;5081285;28;20102;-73
2021/04/12 09:38:20;;;;;;;5.07;3.55;;;4.80;99.90;;;;;;5081366;28;20020;-75
2021/04/12 09:41:09;;;;;;;6.93;4.30;;;5.10;99.90;;;;;;5080526;28;20029;-74
2021/04/12 09:44:06;;;;;;;8.63;4.68;;;4.80;99.90;;;;;;5075028;28;20475;-74
2021/04/12 09:47:10;;;;;;;7.07;4.03;;;4.80;99.90;;;;;;5084748;28;20012;-74
2021/04/12 09:49:50;;;;;;;6.25;4.13;;;4.60;99.90;;;;;;5080455;28;20506;-73
2021/04/12 09:52:43;;;;;;;7.38;5.28;;;4.70;99.90;;;;;;5070899;28;20024;-73
2021/04/12 09:56:00;;;;;;;9.30;6.28;;;5.00;99.90;;;;;;5073461;28;20024;-74
2021/04/12 09:58:44;;;;;;;6.22;4.85;;;4.90;99.90;;;;;;5073462;28;20036;-73
2021/04/12 10:01:38;;;;;;;9.00;5.20;;;5.10;99.90;;;;;;5075668;28;20028;-74
2021/04/12 10:04:28;;;;;;;8.85;5.13;;;5.20;99.90;;;;;;5076076;28;20024;-74
2021/04/12 10:07:13;;;;;;;7.88;5.20;;;5.30;99.90;;;;;;5071540;28;20385;-73
2021/04/12 10:10:00;;;;;;;5.57;4.55;;;5.30;99.90;;;;;;5073881;28;20036;-74
2021/04/12 10:12:46;;;;;;;10.68;5.20;;;5.40;99.90;;;;;;5080497;28;20063;-73
2021/04/12 10:15:12;;;;;;;7.95;4.20;;;5.60;99.90;;;;;;5080947;28;20020;-73
2021/04/12 10:17:57;;;;;;;7.25;5.18;;;5.60;99.90;;;;;;5080847;28;20016;-74
2021/04/12 10:20:28;;;;;;;5.97;4.30;;;5.30;99.90;;;;;;5079840;28;20023;-73
2021/04/12 10:22:56;;;;;;;5.77;4.27;;;5.50;99.90;;;;;;5089508;28;20061;-73
2021/04/12 10:25:47;;;;;;;6.25;4.45;;;5.40;99.90;;;;;;5078721;28;20266;-73
2021/04/12 10:28:28;;;;;;;8.05;5.13;;;5.50;99.90;;;;;;5071921;28;20939;-74
2021/04/12 10:31:30;;;;;;;7.07;5.40;;;5.50;99.90;;;;;;5086015;28;20024;-74
2021/04/12 10:34:14;;;;;;;7.78;4.13;;;5.30;99.90;;;;;;5079892;28;20073;-73
2021/04/12 10:36:48;;;;;;;5.95;3.67;;;4.90;99.90;;;;;;5085263;28;20021;-73
2021/04/12 10:39:46;;;;;;;7.50;4.43;;;4.60;99.90;;;;;;5071323;28;20021;-74
2021/04/12 10:42:34;;;;;;;6.35;4.07;;;4.50;99.90;;;;;;5037299;28;20067;-73
2021/04/12 10:45:18;;;;;;;3.60;3.30;;;4.50;99.90;;;;;;5075699;28;20033;-74
2021/04/12 10:48:11;;;;;;;8.70;3.53;;;4.70;99.90;;;;;;5103286;23;20021;-71
2021/04/12 10:50:58;;;;;;;6.82;4.38;;;5.00;99.90;;;;;;5061367;28;20043;-71
2021/04/12 10:53:53;;;;;;;13.32;5.47;;;4.90;99.90;;;;;;5062939;28;20032;-71
2021/04/12 10:56:36;;;;;;;4.88;3.80;;;4.90;99.90;;;;;;5063070;28;20031;-71
2021/04/12 10:59:19;;;;;;;8.63;5.38;;;5.00;99.90;;;;;;5060579;28;20036;-71
2021/04/12 11:01:57;;;;;;;4.32;3.40;;;5.10;99.90;;;;;;5068846;28;20027;-71
2021/04/12 11:04:55;;;;;;;5.03;3.78;;;5.00;99.90;;;;;;5064186;28;20029;-71
2021/04/12 11:07:53;;;;;;;5.55;4.30;;;4.70;99.90;;;;;;5036809;28;20051;-71
2021/04/12 11:10:52;;;;;;;6.32;3.55;;;4.90;99.90;;;;;;5056055;28;20069;-71
2021/04/12 11:13:50;;;;;;;7.05;4.35;;;4.80;99.90;;;;;;5061615;28;20342;-71
2021/04/12 11:16:45;;;;;;;6.18;3.78;;;5.10;99.90;;;;;;5056089;28;20047;-71
2021/04/12 11:19:35;;;;;;;4.07;3.67;;;5.10;99.90;;;;;;5069094;28;20046;-71
2021/04/12 11:22:13;;;;;;;7.28;4.57;;;4.90;99.90;;;;;;5064269;28;20021;-71
2021/04/12 11:25:03;;;;;;;6.30;4.78;;;5.10;99.90;;;;;;5068654;28;20470;-71
2021/04/12 11:27:38;;;;;;;3.92;3.53;;;5.20;99.90;;;;;;5058184;28;20024;-71
2021/04/12 11:30:14;;;;;;;4.30;3.60;;;5.30;99.90;;;;;;5067168;28;20104;-71
2021/04/12 11:32:47;;;;;;;7.78;3.90;;;5.30;99.90;;;;;;5063647;28;20167;-71
2021/04/12 11:35:39;;;;;;;5.95;4.60;;;5.30;99.90;;;;;;5068392;28;20025;-71
2021/04/12 11:38:19;;;;;;;5.85;4.68;;;5.00;99.90;;;;;;5049994;28;20025;-71
2021/04/12 11:40:52;;;;;;;4.75;4.03;;;5.00;99.90;;;;;;5078459;28;20100;-71
2021/04/12 11:43:26;;;;;;;5.13;4.22;;;5.10;99.90;;;;;;5064212;28;20032;-71
2021/04/12 11:46:06;;;;;;;9.00;5.38;;;5.10;99.90;;;;;;5060463;28;20122;-71
2021/04/12 11:48:44;;;;;;;10.25;4.57;;;5.00;99.90;;;;;;5063734;28;20028;-71
2021/04/12 11:51:44;;;;;;;5.07;4.20;;;5.10;99.90;;;;;;5064688;28;20379;-71
2021/04/12 11:54:13;;;;;;;4.97;3.65;;;5.00;99.90;;;;;;5056531;28;20028;-71
2021/04/12 11:57:04;;;;;;;6.68;4.85;;;5.20;99.90;;;;;;5062148;28;20021;-71
2021/04/12 12:00:00;;;;;;;5.78;4.38;;;5.40;99.90;;;;;;5067368;28;20375;-71
2021/04/12 12:02:44;;;;;;;6.05;5.25;;;5.30;99.90;;;;;;5010558;28;20089;-71
2021/04/12 12:05:27;;;;;;;11.20;5.88;;;5.40;99.90;;;;;;5073730;28;20024;-70
2021/04/12 12:08:00;;;;;;;7.60;5.10;;;5.40;99.90;;;;;;5067765;28;20032;-71
2021/04/12 12:10:32;;;;;;;5.53;4.63;;;5.40;99.90;;;;;;5055570;28;20067;-71
2021/04/12 12:13:26;;;;;;;5.55;4.38;;;5.30;99.90;;;;;;5051528;28;20083;-71
2021/04/12 12:16:13;;;;;;;5.38;4.43;;;5.30;99.90;;;;;;5060607;28;20032;-71
2021/04/12 12:19:01;;;;;;;6.55;4.57;;;5.40;99.90;;;;;;5063590;28;20032;-69
2021/04/12 12:21:30;;;;;;;7.05;5.30;;;5.40;99.90;;;;;;5070344;28;20021;-70
2021/04/12 12:24:26;;;;;;;7.18;5.60;;;5.30;99.90;;;;;;5038600;28;20247;-69
2021/04/12 12:27:11;;;;;;;9.77;5.38;;;5.10;99.90;;;;;;5049772;28;20060;-69
2021/04/12 12:29:49;;;;;;;6.95;5.13;;;5.00;99.90;;;;;;5066427;28;20031;-69
2021/04/12 12:32:15;;;;;;;9.00;5.35;;;5.10;99.90;;;;;;5066910;28;20032;-69
2021/04/12 12:34:57;;;;;;;7.63;5.40;;;5.00;99.90;;;;;;5061707;28;20442;-70
2021/04/12 12:37:31;;;;;;;10.40;6.90;;;5.00;99.90;;;;;;5061961;28;20044;-69
2021/04/12 12:39:59;;;;;;;7.93;6.22;;;5.00;99.90;;;;;;5056577;28;20064;-69
2021/04/12 12:42:31;;;;;;;8.40;6.07;;;5.30;99.90;;;;;;5062202;28;20090;-69
2021/04/12 12:45:10;;;;;;;9.63;6.75;;;5.30;99.90;;;;;;5064270;28;20036;-70
2021/04/12 12:47:37;;;;;;;11.30;6.50;;;5.30;99.90;;;;;;5062253;28;20488;-69
2021/04/12 12:50:13;;;;;;;8.57;5.32;;;5.50;99.90;;;;;;5048163;28;20040;-70
2021/04/12 12:52:47;;;;;;;7.65;5.90;;;5.40;99.90;;;;;;5066010;28;20395;-69
2021/04/12 12:55:20;;;;;;;10.73;6.25;;;5.40;99.90;;;;;;5061315;28;20039;-71
2021/04/12 12:57:47;;;;;;;8.90;6.20;;;5.60;99.90;;;;;;5064238;28;20020;-72
2021/04/12 13:00:20;;;;;;;15.82;7.35;;;5.60;99.90;;;;;;5058428;28;20028;-72
2021/04/12 13:02:48;;;;;;;13.70;7.57;;;5.60;99.90;;;;;;5061063;28;20033;-71
2021/04/12 13:05:31;;;;;;;11.45;7.95;;;5.50;99.90;;;;;;5057489;28;20100;-71
2021/04/12 13:08:26;;;;;;;7.82;6.25;;;5.60;99.90;;;;;;5065128;28;20040;-71
2021/04/12 13:10:54;;;;;;;13.95;7.97;;;5.60;99.90;;;;;;5063038;28;20013;-71
2021/04/12 13:13:35;;;;;;;10.30;5.53;;;5.60;99.90;;;;;;5068980;28;20028;-71
2021/04/12 13:16:12;;;;;;;7.43;5.27;;;5.40;99.90;;;;;;5057672;28;20024;-71
2021/04/12 13:18:41;;;;;;;9.55;5.18;;;5.30;99.90;;;;;;5057374;28;20021;-71
2021/04/12 13:21:19;;;;;;;6.60;4.72;;;5.30;99.90;;;;;;5058515;28;20039;-71
2021/04/12 13:23:44;;;;;;;8.05;5.43;;;5.10;99.90;;;;;;5065140;28;20052;-71
2021/04/12 13:26:35;;;;;;;8.93;6.47;;;5.20;99.90;;;;;;5057251;28;20067;-71
2021/04/12 13:29:11;;;;;;;7.45;5.50;;;5.10;99.90;;;;;;5034160;28;20127;-72
2021/04/12 13:31:48;;;;;;;7.55;5.95;;;4.90;99.90;;;;;;5054949;28;20029;-71
2021/04/12 13:34:25;;;;;;;7.43;6.20;;;5.10;99.90;;;;;;5066318;28;20020;-71
2021/04/12 13:37:02;;;;;;;8.45;6.25;;;5.20;99.90;;;;;;5061242;28;20437;-71
2021/04/12 13:39:43;;;;;;;7.43;5.80;;;5.20;99.90;;;;;;5059402;28;20024;-71
2021/04/12 13:42:26;;;;;;;9.13;6.38;;;5.30;99.90;;;;;;5065186;28;20118;-71
2021/04/12 13:45:00;;;;;;;9.93;6.38;;;5.30;99.90;;;;;;5060106;28;20366;-71
2021/04/12 13:47:45;;;;;;;6.43;5.10;;;5.40;99.90;;;;;;5065281;28;20029;-71
2021/04/12 13:50:23;;;;;;;9.00;5.95;;;5.40;99.90;;;;;;5059845;28;20491;-71
2021/04/12 13:52:59;;;;;;;13.00;6.28;;;5.40;99.90;;;;;;5054633;28;20025;-71
2021/04/12 13:55:35;;;;;;;9.70;6.15;;;5.30;99.90;;;;;;5061264;28;20025;-71
2021/04/12 13:58:08;;;;;;;12.32;5.82;;;5.20;99.90;;;;;;5058439;28;20032;-72
2021/04/12 14:00:45;;;;;;;10.95;6.70;;;5.40;99.90;;;;;;5043950;28;20032;-71
2021/04/12 14:03:25;;;;;;;7.35;5.40;;;5.40;99.90;;;;;;5069144;28;20025;-71
2021/04/12 14:06:02;;;;;;;12.07;5.63;;;5.30;99.90;;;;;;5060781;28;20059;-71
2021/04/12 14:08:39;;;;;;;17.58;11.48;;;5.30;99.90;;;;;;5057977;28;20085;-72
2021/04/12 14:11:16;;;;;;;17.08;11.82;;;5.40;99.90;;;;;;5065790;28;20040;-71
2021/04/12 14:13:49;;;;;;;9.20;6.03;;;5.50;99.90;;;;;;5042676;28;20111;-73
2021/04/12 14:16:20;;;;;;;10.30;5.10;;;5.40;99.90;;;;;;5072391;28;20055;-72
2021/04/12 14:19:09;;;;;;;11.15;6.88;;;5.30;99.90;;;;;;5070192;28;20154;-71
2021/04/12 14:21:47;;;;;;;7.10;5.70;;;5.30;99.90;;;;;;5068728;28;20031;-72
2021/04/12 14:24:27;;;;;;;7.35;5.65;;;5.40;99.90;;;;;;5057984;28;20131;-72
2021/04/12 14:27:20;;;;;;;8.38;6.05;;;5.20;99.90;;;;;;5068508;28;20024;-71
2021/04/12 14:29:48;;;;;;;8.75;6.25;;;5.20;99.90;;;;;;5050249;28;20033;-72